sensor_id;sensor_type;location;lat;lon;timestamp;temperature;humidity
71396;DHT22;59888;55.814;37.132;2023-11-19T00:00:26;-6.02;56.43
71396;DHT22;59888;55.814;37.132;2023-11-19T00:02:53;-5.98;56.43
71396;DHT22;59888;55.814;37.132;2023-11-19T00:05:19;-6.05;56.36
71396;DHT22;59888;55.814;37.132;2023-11-19T00:07:45;-6.11;56.39
71396;DHT22;59888;55.814;37.132;2023-11-19T00:10:12;-6.09;56.42
71396;DHT22;59888;55.814;37.132;2023-11-19T00:12:43;-6.11;56.43
71396;DHT22;59888;55.814;37.132;2023-11-19T00:15:10;-6.15;56.47
71396;DHT22;59888;55.814;37.132;2023-11-19T00:17:42;-6.11;56.45
71396;DHT22;59888;55.814;37.132;2023-11-19T00:20:12;-6.09;56.42
71396;DHT22;59888;55.814;37.132;2023-11-19T00:22:38;-6.04;56.45
71396;DHT22;59888;55.814;37.132;2023-11-19T00:25:05;-6.02;56.43
71396;DHT22;59888;55.814;37.132;2023-11-19T00:27:31;-6.01;56.34
71396;DHT22;59888;55.814;37.132;2023-11-19T00:29:57;-6.03;56.35
71396;DHT22;59888;55.814;37.132;2023-11-19T00:32:25;-6.05;56.33
71396;DHT22;59888;55.814;37.132;2023-11-19T00:34:51;-6.05;56.35
71396;DHT22;59888;55.814;37.132;2023-11-19T00:37:17;-6.07;56.35
71396;DHT22;59888;55.814;37.132;2023-11-19T00:39:43;-6.05;56.40
71396;DHT22;59888;55.814;37.132;2023-11-19T00:42:10;-6.11;56.32
71396;DHT22;59888;55.814;37.132;2023-11-19T00:44:37;-6.13;56.36
71396;DHT22;59888;55.814;37.132;2023-11-19T00:47:03;-6.08;56.41
71396;DHT22;59888;55.814;37.132;2023-11-19T00:49:31;-6.05;56.30
71396;DHT22;59888;55.814;37.132;2023-11-19T00:51:58;-6.11;56.22
71396;DHT22;59888;55.814;37.132;2023-11-19T00:54:25;-6.15;56.27
71396;DHT22;59888;55.814;37.132;2023-11-19T00:56:52;-6.17;56.26
71396;DHT22;59888;55.814;37.132;2023-11-19T00:59:19;-6.18;56.29
71396;DHT22;59888;55.814;37.132;2023-11-19T01:01:45;-6.18;56.29
71396;DHT22;59888;55.814;37.132;2023-11-19T01:04:11;-6.17;56.27
71396;DHT22;59888;55.814;37.132;2023-11-19T01:06:37;-6.21;56.28
71396;DHT22;59888;55.814;37.132;2023-11-19T01:09:03;-6.22;56.34
71396;DHT22;59888;55.814;37.132;2023-11-19T01:11:29;-6.28;56.39
71396;DHT22;59888;55.814;37.132;2023-11-19T01:13:55;-6.26;56.42
71396;DHT22;59888;55.814;37.132;2023-11-19T01:16:22;-6.23;56.42
71396;DHT22;59888;55.814;37.132;2023-11-19T01:18:48;-6.19;56.45
71396;DHT22;59888;55.814;37.132;2023-11-19T01:21:15;-6.16;56.36
71396;DHT22;59888;55.814;37.132;2023-11-19T01:23:42;-6.19;56.37
71396;DHT22;59888;55.814;37.132;2023-11-19T01:26:12;-6.12;56.40
71396;DHT22;59888;55.814;37.132;2023-11-19T01:28:39;-6.04;56.36
71396;DHT22;59888;55.814;37.132;2023-11-19T01:31:07;-6.03;56.34
71396;DHT22;59888;55.814;37.132;2023-11-19T01:33:38;-6.03;56.37
71396;DHT22;59888;55.814;37.132;2023-11-19T01:36:06;-5.98;56.39
71396;DHT22;59888;55.814;37.132;2023-11-19T01:38:32;-5.88;56.46
71396;DHT22;59888;55.814;37.132;2023-11-19T01:40:58;-5.65;56.41
71396;DHT22;59888;55.814;37.132;2023-11-19T01:43:35;-5.46;56.22
71396;DHT22;59888;55.814;37.132;2023-11-19T01:46:04;-5.37;56.10
71396;DHT22;59888;55.814;37.132;2023-11-19T01:48:33;-5.38;56.07
71396;DHT22;59888;55.814;37.132;2023-11-19T01:51:00;-5.28;56.10
71396;DHT22;59888;55.814;37.132;2023-11-19T01:53:27;-5.14;56.13
71396;DHT22;59888;55.814;37.132;2023-11-19T01:55:53;-5.08;55.97
71396;DHT22;59888;55.814;37.132;2023-11-19T01:58:19;-5.13;56.06
71396;DHT22;59888;55.814;37.132;2023-11-19T02:00:46;-5.11;56.16
71396;DHT22;59888;55.814;37.132;2023-11-19T02:03:12;-5.04;56.18
71396;DHT22;59888;55.814;37.132;2023-11-19T02:05:39;-4.97;56.18
71396;DHT22;59888;55.814;37.132;2023-11-19T02:08:05;-4.89;56.20
71396;DHT22;59888;55.814;37.132;2023-11-19T02:10:32;-4.81;56.16
71396;DHT22;59888;55.814;37.132;2023-11-19T02:12:58;-4.69;56.08
71396;DHT22;59888;55.814;37.132;2023-11-19T02:15:24;-4.61;55.97
71396;DHT22;59888;55.814;37.132;2023-11-19T02:17:52;-4.58;56.02
71396;DHT22;59888;55.814;37.132;2023-11-19T02:20:19;-4.56;56.01
71396;DHT22;59888;55.814;37.132;2023-11-19T02:22:49;-4.42;55.95
71396;DHT22;59888;55.814;37.132;2023-11-19T02:25:29;-4.29;55.73
71396;DHT22;59888;55.814;37.132;2023-11-19T02:27:58;-4.24;55.56
71396;DHT22;59888;55.814;37.132;2023-11-19T02:30:25;-4.21;55.50
71396;DHT22;59888;55.814;37.132;2023-11-19T02:32:55;-4.15;55.45
71396;DHT22;59888;55.814;37.132;2023-11-19T02:35:27;-4.08;55.29
71396;DHT22;59888;55.814;37.132;2023-11-19T02:37:57;-4.07;55.24
71396;DHT22;59888;55.814;37.132;2023-11-19T02:40:23;-4.04;55.20
71396;DHT22;59888;55.814;37.132;2023-11-19T02:42:51;-3.99;55.20
71396;DHT22;59888;55.814;37.132;2023-11-19T02:45:17;-3.99;55.13
71396;DHT22;59888;55.814;37.132;2023-11-19T02:47:43;-3.99;55.13
71396;DHT22;59888;55.814;37.132;2023-11-19T02:50:11;-3.98;55.09
71396;DHT22;59888;55.814;37.132;2023-11-19T02:52:44;-3.96;55.15
71396;DHT22;59888;55.814;37.132;2023-11-19T02:55:12;-3.95;55.13
71396;DHT22;59888;55.814;37.132;2023-11-19T02:57:39;-3.95;55.13
71396;DHT22;59888;55.814;37.132;2023-11-19T03:00:18;-3.91;55.24
71396;DHT22;59888;55.814;37.132;2023-11-19T03:02:45;-3.87;55.23
71396;DHT22;59888;55.814;37.132;2023-11-19T03:05:19;-3.80;55.20
71396;DHT22;59888;55.814;37.132;2023-11-19T03:07:45;-3.76;55.18
71396;DHT22;59888;55.814;37.132;2023-11-19T03:10:12;-3.70;55.18
71396;DHT22;59888;55.814;37.132;2023-11-19T03:12:43;-3.68;55.10
71396;DHT22;59888;55.814;37.132;2023-11-19T03:15:10;-3.76;55.13
71396;DHT22;59888;55.814;37.132;2023-11-19T03:17:38;-3.71;55.20
71396;DHT22;59888;55.814;37.132;2023-11-19T03:20:06;-3.70;55.27
71396;DHT22;59888;55.814;37.132;2023-11-19T03:22:37;-3.70;55.26
71396;DHT22;59888;55.814;37.132;2023-11-19T03:25:04;-3.66;55.39
71396;DHT22;59888;55.814;37.132;2023-11-19T03:27:33;-3.61;55.36
71396;DHT22;59888;55.814;37.132;2023-11-19T03:30:00;-3.60;55.33
71396;DHT22;59888;55.814;37.132;2023-11-19T03:32:26;-3.54;55.35
71396;DHT22;59888;55.814;37.132;2023-11-19T03:34:52;-3.55;55.35
71396;DHT22;59888;55.814;37.132;2023-11-19T03:37:18;-3.61;55.31
71396;DHT22;59888;55.814;37.132;2023-11-19T03:39:44;-3.64;55.48
71396;DHT22;59888;55.814;37.132;2023-11-19T03:42:10;-3.60;55.52
71396;DHT22;59888;55.814;37.132;2023-11-19T03:44:39;-3.60;55.42
71396;DHT22;59888;55.814;37.132;2023-11-19T03:47:05;-3.64;55.47
71396;DHT22;59888;55.814;37.132;2023-11-19T03:49:32;-3.71;55.49
71396;DHT22;59888;55.814;37.132;2023-11-19T03:51:58;-3.78;55.68
71396;DHT22;59888;55.814;37.132;2023-11-19T03:54:25;-3.76;55.69
71396;DHT22;59888;55.814;37.132;2023-11-19T03:56:53;-3.76;55.59
71396;DHT22;59888;55.814;37.132;2023-11-19T03:59:19;-3.81;55.58
71396;DHT22;59888;55.814;37.132;2023-11-19T04:01:46;-3.90;55.77
71396;DHT22;59888;55.814;37.132;2023-11-19T04:04:13;-3.96;55.92
71396;DHT22;59888;55.814;37.132;2023-11-19T04:06:40;-4.05;55.90
71396;DHT22;59888;55.814;37.132;2023-11-19T04:09:06;-4.09;55.99
71396;DHT22;59888;55.814;37.132;2023-11-19T04:11:32;-4.06;56.15
71396;DHT22;59888;55.814;37.132;2023-11-19T04:13:58;-3.94;56.11
71396;DHT22;59888;55.814;37.132;2023-11-19T04:16:27;-3.83;55.97
71396;DHT22;59888;55.814;37.132;2023-11-19T04:18:54;-3.70;55.85
71396;DHT22;59888;55.814;37.132;2023-11-19T04:21:20;-3.74;55.61
71396;DHT22;59888;55.814;37.132;2023-11-19T04:23:49;-3.79;55.63
71396;DHT22;59888;55.814;37.132;2023-11-19T04:26:15;-3.79;55.68
71396;DHT22;59888;55.814;37.132;2023-11-19T04:28:41;-3.72;55.70
71396;DHT22;59888;55.814;37.132;2023-11-19T04:31:07;-3.65;55.60
71396;DHT22;59888;55.814;37.132;2023-11-19T04:33:35;-3.64;55.53
71396;DHT22;59888;55.814;37.132;2023-11-19T04:36:01;-3.65;55.53
71396;DHT22;59888;55.814;37.132;2023-11-19T04:38:28;-3.61;55.48
71396;DHT22;59888;55.814;37.132;2023-11-19T04:40:54;-3.62;55.49
71396;DHT22;59888;55.814;37.132;2023-11-19T04:43:22;-3.62;55.47
71396;DHT22;59888;55.814;37.132;2023-11-19T04:45:49;-3.60;55.41
71396;DHT22;59888;55.814;37.132;2023-11-19T04:48:15;-3.60;55.48
71396;DHT22;59888;55.814;37.132;2023-11-19T04:50:41;-3.53;55.49
71396;DHT22;59888;55.814;37.132;2023-11-19T04:53:07;-3.46;55.39
71396;DHT22;59888;55.814;37.132;2023-11-19T04:55:34;-3.51;55.41
71396;DHT22;59888;55.814;37.132;2023-11-19T04:58:00;-3.47;55.49
71396;DHT22;59888;55.814;37.132;2023-11-19T05:00:26;-3.38;55.39
71396;DHT22;59888;55.814;37.132;2023-11-19T05:02:52;-3.34;55.30
71396;DHT22;59888;55.814;37.132;2023-11-19T05:05:18;-3.31;55.26
71396;DHT22;59888;55.814;37.132;2023-11-19T05:07:44;-3.31;55.21
71396;DHT22;59888;55.814;37.132;2023-11-19T05:10:10;-3.37;55.13
71396;DHT22;59888;55.814;37.132;2023-11-19T05:12:36;-3.42;55.27
71396;DHT22;59888;55.814;37.132;2023-11-19T05:15:02;-3.40;55.37
71396;DHT22;59888;55.814;37.132;2023-11-19T05:17:31;-3.42;55.28
71396;DHT22;59888;55.814;37.132;2023-11-19T05:19:57;-3.47;55.36
71396;DHT22;59888;55.814;37.132;2023-11-19T05:22:23;-3.46;55.44
71396;DHT22;59888;55.814;37.132;2023-11-19T05:24:49;-3.41;55.54
71396;DHT22;59888;55.814;37.132;2023-11-19T05:27:15;-3.30;55.56
71396;DHT22;59888;55.814;37.132;2023-11-19T05:29:43;-3.34;55.35
71396;DHT22;59888;55.814;37.132;2023-11-19T05:32:10;-3.49;55.35
71396;DHT22;59888;55.814;37.132;2023-11-19T05:34:36;-3.52;55.53
71396;DHT22;59888;55.814;37.132;2023-11-19T05:37:02;-3.50;55.53
71396;DHT22;59888;55.814;37.132;2023-11-19T05:39:28;-3.48;55.64
71396;DHT22;59888;55.814;37.132;2023-11-19T05:41:54;-3.51;55.62
71396;DHT22;59888;55.814;37.132;2023-11-19T05:44:20;-3.53;55.72
71396;DHT22;59888;55.814;37.132;2023-11-19T05:46:46;-3.43;55.71
71396;DHT22;59888;55.814;37.132;2023-11-19T05:49:12;-3.43;55.74
71396;DHT22;59888;55.814;37.132;2023-11-19T05:51:39;-3.35;55.75
71396;DHT22;59888;55.814;37.132;2023-11-19T05:54:09;-3.31;55.74
71396;DHT22;59888;55.814;37.132;2023-11-19T05:56:35;-3.17;55.80
71396;DHT22;59888;55.814;37.132;2023-11-19T05:59:02;-3.07;55.67
71396;DHT22;59888;55.814;37.132;2023-11-19T06:01:41;-3.03;55.63
71396;DHT22;59888;55.814;37.132;2023-11-19T06:04:07;-2.96;55.55
71396;DHT22;59888;55.814;37.132;2023-11-19T06:06:33;-2.96;55.50
71396;DHT22;59888;55.814;37.132;2023-11-19T06:09:00;-2.94;55.52
71396;DHT22;59888;55.814;37.132;2023-11-19T06:11:28;-3.08;55.36
71396;DHT22;59888;55.814;37.132;2023-11-19T06:13:54;-3.12;55.55
71396;DHT22;59888;55.814;37.132;2023-11-19T06:16:20;-3.02;55.64
71396;DHT22;59888;55.814;37.132;2023-11-19T06:18:46;-3.01;55.54
71396;DHT22;59888;55.814;37.132;2023-11-19T06:21:12;-3.07;55.41
71396;DHT22;59888;55.814;37.132;2023-11-19T06:23:38;-3.12;55.65
71396;DHT22;59888;55.814;37.132;2023-11-19T06:26:04;-3.11;55.70
71396;DHT22;59888;55.814;37.132;2023-11-19T06:28:31;-3.07;55.74
71396;DHT22;59888;55.814;37.132;2023-11-19T06:30:58;-2.98;55.82
71396;DHT22;59888;55.814;37.132;2023-11-19T06:33:24;-2.82;55.79
71396;DHT22;59888;55.814;37.132;2023-11-19T06:35:50;-2.83;55.42
71396;DHT22;59888;55.814;37.132;2023-11-19T06:38:16;-2.93;55.47
71396;DHT22;59888;55.814;37.132;2023-11-19T06:40:42;-3.04;55.49
71396;DHT22;59888;55.814;37.132;2023-11-19T06:43:08;-3.13;55.68
71396;DHT22;59888;55.814;37.132;2023-11-19T06:45:34;-3.19;55.94
71396;DHT22;59888;55.814;37.132;2023-11-19T06:48:03;-3.26;56.11
71396;DHT22;59888;55.814;37.132;2023-11-19T06:50:47;-3.21;56.32
71396;DHT22;59888;55.814;37.132;2023-11-19T06:53:15;-3.11;56.27
71396;DHT22;59888;55.814;37.132;2023-11-19T06:55:44;-3.10;56.19
71396;DHT22;59888;55.814;37.132;2023-11-19T06:58:10;-3.03;56.30
71396;DHT22;59888;55.814;37.132;2023-11-19T07:00:37;-2.97;56.26
71396;DHT22;59888;55.814;37.132;2023-11-19T07:03:03;-2.96;56.14
71396;DHT22;59888;55.814;37.132;2023-11-19T07:05:31;-3.05;56.26
71396;DHT22;59888;55.814;37.132;2023-11-19T07:07:58;-3.10;56.37
71396;DHT22;59888;55.814;37.132;2023-11-19T07:10:24;-3.04;56.56
71396;DHT22;59888;55.814;37.132;2023-11-19T07:13:16;-2.93;56.60
71396;DHT22;59888;55.814;37.132;2023-11-19T07:15:43;-2.87;56.45
71396;DHT22;59888;55.814;37.132;2023-11-19T07:18:09;-2.83;56.29
71396;DHT22;59888;55.814;37.132;2023-11-19T07:20:40;-2.92;56.35
71396;DHT22;59888;55.814;37.132;2023-11-19T07:26:26;-2.82;56.47
71396;DHT22;59888;55.814;37.132;2023-11-19T07:28:52;-2.87;56.29
71396;DHT22;59888;55.814;37.132;2023-11-19T07:31:18;-2.88;56.37
71396;DHT22;59888;55.814;37.132;2023-11-19T07:33:45;-2.87;56.43
71396;DHT22;59888;55.814;37.132;2023-11-19T07:36:13;-2.77;56.45
71396;DHT22;59888;55.814;37.132;2023-11-19T07:38:39;-2.76;56.51
71396;DHT22;59888;55.814;37.132;2023-11-19T07:41:18;-2.59;56.55
71396;DHT22;59888;55.814;37.132;2023-11-19T07:43:48;-2.39;56.63
71396;DHT22;59888;55.814;37.132;2023-11-19T07:46:17;-2.23;56.48
71396;DHT22;59888;55.814;37.132;2023-11-19T07:48:47;-2.12;56.25
71396;DHT22;59888;55.814;37.132;2023-11-19T07:54:37;-1.87;55.82
71396;DHT22;59888;55.814;37.132;2023-11-19T07:57:04;-1.86;55.81
71396;DHT22;59888;55.814;37.132;2023-11-19T07:59:30;-1.89;55.90
71396;DHT22;59888;55.814;37.132;2023-11-19T08:02:08;-1.75;55.90
71396;DHT22;59888;55.814;37.132;2023-11-19T08:04:55;-1.70;55.84
71396;DHT22;59888;55.814;37.132;2023-11-19T08:07:22;-1.71;55.59
71396;DHT22;59888;55.814;37.132;2023-11-19T08:10:14;-1.75;55.56
71396;DHT22;59888;55.814;37.132;2023-11-19T08:13:02;-1.88;55.49
71396;DHT22;59888;55.814;37.132;2023-11-19T08:15:31;-1.91;55.74
71396;DHT22;59888;55.814;37.132;2023-11-19T08:17:59;-1.90;55.84
71396;DHT22;59888;55.814;37.132;2023-11-19T08:20:36;-1.94;55.90
71396;DHT22;59888;55.814;37.132;2023-11-19T08:23:13;-1.93;55.87
71396;DHT22;59888;55.814;37.132;2023-11-19T08:25:42;-1.91;55.86
71396;DHT22;59888;55.814;37.132;2023-11-19T08:28:12;-1.98;55.90
71396;DHT22;59888;55.814;37.132;2023-11-19T08:30:44;-1.95;56.03
71396;DHT22;59888;55.814;37.132;2023-11-19T08:33:18;-1.91;56.18
71396;DHT22;59888;55.814;37.132;2023-11-19T08:35:44;-1.72;56.19
71396;DHT22;59888;55.814;37.132;2023-11-19T08:38:13;-1.72;55.68
71396;DHT22;59888;55.814;37.132;2023-11-19T08:40:40;-1.78;55.49
71396;DHT22;59888;55.814;37.132;2023-11-19T08:43:11;-1.90;55.72
71396;DHT22;59888;55.814;37.132;2023-11-19T08:45:37;-1.87;56.05
71396;DHT22;59888;55.814;37.132;2023-11-19T08:48:04;-1.78;56.13
71396;DHT22;59888;55.814;37.132;2023-11-19T08:50:30;-1.61;56.10
71396;DHT22;59888;55.814;37.132;2023-11-19T08:53:06;-1.50;55.84
71396;DHT22;59888;55.814;37.132;2023-11-19T08:55:33;-1.49;55.89
71396;DHT22;59888;55.814;37.132;2023-11-19T08:57:59;-1.55;55.76
71396;DHT22;59888;55.814;37.132;2023-11-19T09:00:25;-1.55;55.74
71396;DHT22;59888;55.814;37.132;2023-11-19T09:02:56;-1.50;55.84
71396;DHT22;59888;55.814;37.132;2023-11-19T09:05:23;-1.41;55.93
71396;DHT22;59888;55.814;37.132;2023-11-19T09:07:49;-1.42;55.72
71396;DHT22;59888;55.814;37.132;2023-11-19T09:10:16;-1.34;55.68
71396;DHT22;59888;55.814;37.132;2023-11-19T09:12:45;-1.27;55.85
71396;DHT22;59888;55.814;37.132;2023-11-19T09:15:11;-1.19;55.78
71396;DHT22;59888;55.814;37.132;2023-11-19T09:17:37;-1.06;55.71
71396;DHT22;59888;55.814;37.132;2023-11-19T09:20:04;-1.01;55.62
71396;DHT22;59888;55.814;37.132;2023-11-19T09:22:30;-0.96;55.50
71396;DHT22;59888;55.814;37.132;2023-11-19T09:24:56;-0.82;55.36
71396;DHT22;59888;55.814;37.132;2023-11-19T09:27:25;-0.69;55.31
71396;DHT22;59888;55.814;37.132;2023-11-19T09:29:51;-0.55;55.16
71396;DHT22;59888;55.814;37.132;2023-11-19T09:32:23;-0.50;55.10
71396;DHT22;59888;55.814;37.132;2023-11-19T09:34:49;-0.50;55.07
71396;DHT22;59888;55.814;37.132;2023-11-19T09:37:19;-0.46;55.00
71396;DHT22;59888;55.814;37.132;2023-11-19T09:39:47;-0.43;54.78
71396;DHT22;59888;55.814;37.132;2023-11-19T09:42:13;-0.36;54.90
71396;DHT22;59888;55.814;37.132;2023-11-19T09:45:01;-0.27;54.49
71396;DHT22;59888;55.814;37.132;2023-11-19T09:47:30;-0.25;54.50
71396;DHT22;59888;55.814;37.132;2023-11-19T09:50:01;-0.15;54.48
71396;DHT22;59888;55.814;37.132;2023-11-19T09:52:29;-0.09;54.24
71396;DHT22;59888;55.814;37.132;2023-11-19T09:54:55;-0.00;54.20
71396;DHT22;59888;55.814;37.132;2023-11-19T09:57:22;-0.03;53.97
71396;DHT22;59888;55.814;37.132;2023-11-19T10:00:13;-0.09;53.92
71396;DHT22;59888;55.814;37.132;2023-11-19T10:02:43;-0.05;53.91
71396;DHT22;59888;55.814;37.132;2023-11-19T10:05:37;-0.00;53.80
71396;DHT22;59888;55.814;37.132;2023-11-19T10:08:21;-0.08;53.42
71396;DHT22;59888;55.814;37.132;2023-11-19T10:10:47;-0.14;53.33
71396;DHT22;59888;55.814;37.132;2023-11-19T10:13:18;-0.15;53.40
71396;DHT22;59888;55.814;37.132;2023-11-19T10:15:47;-0.24;53.21
71396;DHT22;59888;55.814;37.132;2023-11-19T10:18:14;-0.27;53.49
71396;DHT22;59888;55.814;37.132;2023-11-19T10:20:44;-0.27;53.36
71396;DHT22;59888;55.814;37.132;2023-11-19T10:26:45;-0.57;52.91
71396;DHT22;59888;55.814;37.132;2023-11-19T10:29:12;-0.58;52.80
71396;DHT22;59888;55.814;37.132;2023-11-19T10:31:40;-0.62;52.37
71396;DHT22;59888;55.814;37.132;2023-11-19T10:34:27;-0.54;52.33
71396;DHT22;59888;55.814;37.132;2023-11-19T10:37:23;-0.45;52.26
71396;DHT22;59888;55.814;37.132;2023-11-19T10:39:56;-0.46;52.03
71396;DHT22;59888;55.814;37.132;2023-11-19T10:43:02;-0.46;51.93
71396;DHT22;59888;55.814;37.132;2023-11-19T10:45:35;-0.42;52.17
71396;DHT22;59888;55.814;37.132;2023-11-19T10:48:04;-0.42;52.14
71396;DHT22;59888;55.814;37.132;2023-11-19T10:50:38;-0.50;52.28
71396;DHT22;59888;55.814;37.132;2023-11-19T10:57:05;-0.58;52.53
71396;DHT22;59888;55.814;37.132;2023-11-19T10:59:36;-0.62;52.74
71396;DHT22;59888;55.814;37.132;2023-11-19T11:02:44;-0.50;52.86
71396;DHT22;59888;55.814;37.132;2023-11-19T11:05:14;-0.47;52.99
71396;DHT22;59888;55.814;37.132;2023-11-19T11:07:41;-0.54;52.97
71396;DHT22;59888;55.814;37.132;2023-11-19T11:10:09;-0.57;52.93
71396;DHT22;59888;55.814;37.132;2023-11-19T11:12:37;-0.53;53.01
71396;DHT22;59888;55.814;37.132;2023-11-19T11:15:06;-0.40;53.06
71396;DHT22;59888;55.814;37.132;2023-11-19T11:17:39;-0.35;53.07
71396;DHT22;59888;55.814;37.132;2023-11-19T11:20:07;-0.38;53.20
71396;DHT22;59888;55.814;37.132;2023-11-19T11:22:46;-0.47;53.19
71396;DHT22;59888;55.814;37.132;2023-11-19T11:28:31;-0.49;53.14
71396;DHT22;59888;55.814;37.132;2023-11-19T11:31:09;-0.56;53.12
71396;DHT22;59888;55.814;37.132;2023-11-19T11:33:54;-0.57;53.10
71396;DHT22;59888;55.814;37.132;2023-11-19T11:39:24;-0.52;53.00
71396;DHT22;59888;55.814;37.132;2023-11-19T11:45:11;-0.62;52.62
71396;DHT22;59888;55.814;37.132;2023-11-19T11:50:18;-0.79;52.97
71396;DHT22;59888;55.814;37.132;2023-11-19T11:53:23;-0.76;52.84
71396;DHT22;59888;55.814;37.132;2023-11-19T11:58:25;-0.74;52.52
71396;DHT22;59888;55.814;37.132;2023-11-19T12:00:52;-0.69;52.46
71396;DHT22;59888;55.814;37.132;2023-11-19T12:03:22;-0.67;52.27
71396;DHT22;59888;55.814;37.132;2023-11-19T12:05:50;-0.68;52.43
71396;DHT22;59888;55.814;37.132;2023-11-19T12:08:25;-0.73;52.19
71396;DHT22;59888;55.814;37.132;2023-11-19T12:11:02;-0.79;52.00
71396;DHT22;59888;55.814;37.132;2023-11-19T12:13:55;-0.84;52.17
71396;DHT22;59888;55.814;37.132;2023-11-19T12:16:28;-0.87;52.37
71396;DHT22;59888;55.814;37.132;2023-11-19T12:18:55;-0.86;52.31
71396;DHT22;59888;55.814;37.132;2023-11-19T12:21:38;-0.80;52.17
71396;DHT22;59888;55.814;37.132;2023-11-19T12:24:04;-0.74;52.26
71396;DHT22;59888;55.814;37.132;2023-11-19T12:26:34;-0.75;52.17
71396;DHT22;59888;55.814;37.132;2023-11-19T12:33:09;-0.85;51.99
71396;DHT22;59888;55.814;37.132;2023-11-19T12:35:42;-0.94;52.11
71396;DHT22;59888;55.814;37.132;2023-11-19T12:38:29;-0.88;52.14
71396;DHT22;59888;55.814;37.132;2023-11-19T12:41:09;-0.97;51.97
71396;DHT22;59888;55.814;37.132;2023-11-19T12:43:46;-1.01;52.14
71396;DHT22;59888;55.814;37.132;2023-11-19T12:46:20;-1.03;51.95
71396;DHT22;59888;55.814;37.132;2023-11-19T12:48:48;-1.09;52.01
71396;DHT22;59888;55.814;37.132;2023-11-19T12:51:41;-1.19;51.83
71396;DHT22;59888;55.814;37.132;2023-11-19T12:54:07;-1.27;52.14
71396;DHT22;59888;55.814;37.132;2023-11-19T12:56:33;-1.28;52.14
71396;DHT22;59888;55.814;37.132;2023-11-19T12:59:10;-1.28;52.06
71396;DHT22;59888;55.814;37.132;2023-11-19T13:02:09;-1.28;51.97
71396;DHT22;59888;55.814;37.132;2023-11-19T13:04:35;-1.29;52.07
71396;DHT22;59888;55.814;37.132;2023-11-19T13:07:02;-1.29;52.13
71396;DHT22;59888;55.814;37.132;2023-11-19T13:09:31;-1.29;51.99
71396;DHT22;59888;55.814;37.132;2023-11-19T13:11:57;-1.35;52.11
71396;DHT22;59888;55.814;37.132;2023-11-19T13:14:36;-1.32;52.04
71396;DHT22;59888;55.814;37.132;2023-11-19T13:17:03;-1.33;52.08
71396;DHT22;59888;55.814;37.132;2023-11-19T13:19:29;-1.39;52.09
71396;DHT22;59888;55.814;37.132;2023-11-19T13:21:55;-1.47;52.22
71396;DHT22;59888;55.814;37.132;2023-11-19T13:24:21;-1.53;52.29
71396;DHT22;59888;55.814;37.132;2023-11-19T13:26:55;-1.53;52.38
71396;DHT22;59888;55.814;37.132;2023-11-19T13:29:24;-1.48;52.51
71396;DHT22;59888;55.814;37.132;2023-11-19T13:31:51;-1.48;52.46
71396;DHT22;59888;55.814;37.132;2023-11-19T13:34:16;-1.47;52.38
71396;DHT22;59888;55.814;37.132;2023-11-19T13:36:43;-1.48;52.40
71396;DHT22;59888;55.814;37.132;2023-11-19T13:39:09;-1.50;52.43
71396;DHT22;59888;55.814;37.132;2023-11-19T13:41:36;-1.54;52.40
71396;DHT22;59888;55.814;37.132;2023-11-19T13:44:03;-1.54;52.44
71396;DHT22;59888;55.814;37.132;2023-11-19T13:46:33;-1.57;52.44
71396;DHT22;59888;55.814;37.132;2023-11-19T13:49:02;-1.60;52.49
71396;DHT22;59888;55.814;37.132;2023-11-19T13:51:31;-1.65;52.64
71396;DHT22;59888;55.814;37.132;2023-11-19T13:54:22;-1.69;52.68
71396;DHT22;59888;55.814;37.132;2023-11-19T13:56:55;-1.70;52.84
71396;DHT22;59888;55.814;37.132;2023-11-19T13:59:21;-1.71;52.84
71396;DHT22;59888;55.814;37.132;2023-11-19T14:01:47;-1.75;52.86
71396;DHT22;59888;55.814;37.132;2023-11-19T14:04:13;-1.77;52.92
71396;DHT22;59888;55.814;37.132;2023-11-19T14:06:39;-1.82;52.87
71396;DHT22;59888;55.814;37.132;2023-11-19T14:09:07;-1.85;52.90
71396;DHT22;59888;55.814;37.132;2023-11-19T14:11:34;-1.83;52.91
71396;DHT22;59888;55.814;37.132;2023-11-19T14:14:01;-1.84;52.89
71396;DHT22;59888;55.814;37.132;2023-11-19T14:16:27;-1.90;52.89
71396;DHT22;59888;55.814;37.132;2023-11-19T14:18:53;-1.91;53.08
71396;DHT22;59888;55.814;37.132;2023-11-19T14:21:20;-1.94;52.98
71396;DHT22;59888;55.814;37.132;2023-11-19T14:23:46;-1.91;53.00
71396;DHT22;59888;55.814;37.132;2023-11-19T14:26:13;-1.93;52.87
71396;DHT22;59888;55.814;37.132;2023-11-19T14:28:42;-1.98;53.02
71396;DHT22;59888;55.814;37.132;2023-11-19T14:31:08;-1.99;53.04
71396;DHT22;59888;55.814;37.132;2023-11-19T14:33:34;-1.97;52.97
71396;DHT22;59888;55.814;37.132;2023-11-19T14:36:01;-1.99;53.10
71396;DHT22;59888;55.814;37.132;2023-11-19T14:38:28;-2.00;53.05
71396;DHT22;59888;55.814;37.132;2023-11-19T14:40:54;-1.97;53.01
71396;DHT22;59888;55.814;37.132;2023-11-19T14:43:20;-1.97;52.98
71396;DHT22;59888;55.814;37.132;2023-11-19T14:45:46;-1.97;52.94
71396;DHT22;59888;55.814;37.132;2023-11-19T14:48:18;-1.99;52.98
71396;DHT22;59888;55.814;37.132;2023-11-19T14:51:02;-1.97;52.96
71396;DHT22;59888;55.814;37.132;2023-11-19T14:53:29;-1.99;52.88
71396;DHT22;59888;55.814;37.132;2023-11-19T14:55:55;-2.02;52.94
71396;DHT22;59888;55.814;37.132;2023-11-19T14:58:22;-2.05;53.04
71396;DHT22;59888;55.814;37.132;2023-11-19T15:00:48;-2.06;52.99
71396;DHT22;59888;55.814;37.132;2023-11-19T15:03:14;-2.07;52.95
71396;DHT22;59888;55.814;37.132;2023-11-19T15:05:42;-2.06;53.00
71396;DHT22;59888;55.814;37.132;2023-11-19T15:08:19;-2.14;52.98
71396;DHT22;59888;55.814;37.132;2023-11-19T15:10:48;-2.13;53.01
71396;DHT22;59888;55.814;37.132;2023-11-19T15:13:28;-2.06;52.98
71396;DHT22;59888;55.814;37.132;2023-11-19T15:15:58;-2.04;52.93
71396;DHT22;59888;55.814;37.132;2023-11-19T15:18:24;-2.04;52.86
71396;DHT22;59888;55.814;37.132;2023-11-19T15:20:51;-2.03;52.85
71396;DHT22;59888;55.814;37.132;2023-11-19T15:23:17;-2.05;52.70
71396;DHT22;59888;55.814;37.132;2023-11-19T15:25:45;-2.05;52.82
71396;DHT22;59888;55.814;37.132;2023-11-19T15:28:12;-2.02;52.77
71396;DHT22;59888;55.814;37.132;2023-11-19T15:30:43;-2.02;52.66
71396;DHT22;59888;55.814;37.132;2023-11-19T15:33:34;-2.01;52.64
71396;DHT22;59888;55.814;37.132;2023-11-19T15:36:03;-2.00;52.73
71396;DHT22;59888;55.814;37.132;2023-11-19T15:38:36;-2.01;52.70
71396;DHT22;59888;55.814;37.132;2023-11-19T15:41:05;-2.08;52.76
71396;DHT22;59888;55.814;37.132;2023-11-19T15:43:35;-2.05;52.68
71396;DHT22;59888;55.814;37.132;2023-11-19T15:46:08;-2.08;52.69
71396;DHT22;59888;55.814;37.132;2023-11-19T15:48:42;-2.07;52.68
71396;DHT22;59888;55.814;37.132;2023-11-19T15:51:09;-2.05;52.72
71396;DHT22;59888;55.814;37.132;2023-11-19T15:53:35;-2.06;52.73
71396;DHT22;59888;55.814;37.132;2023-11-19T15:56:02;-2.06;52.70
71396;DHT22;59888;55.814;37.132;2023-11-19T15:58:32;-2.06;52.69
71396;DHT22;59888;55.814;37.132;2023-11-19T16:01:16;-2.07;52.66